Time;durP1;ratioP1;P1;durP2;ratioP2;P2;SDS_P1;SDS_P2;PMS_P1;PMS_P2;Temp;Humidity;BMP_temperature;BMP_pressure;BME280_temperature;BME280_humidity;BME280_pressure;Samples;Min_cycle;Max_cycle;Signal;HPM_P1;HPM_P2
2022/07/17 00:00:45;;;;;;;8.20;5.10;;;;;;;20.21;54.66;99422.44;25052;1312;3050820;-65
2022/07/17 00:03:15;;;;;;;13.90;5.40;;;;;;;20.21;54.57;99420.47;25077;1312;3026621;-68
2022/07/17 00:05:44;;;;;;;11.40;5.50;;;;;;;20.21;54.69;99422.96;25114;1312;3026687;-64
2022/07/17 00:08:14;;;;;;;11.20;5.60;;;;;;;20.20;54.74;99418.73;25064;1312;3028724;-68
2022/07/17 00:10:43;;;;;;;10.00;5.10;;;;;;;20.21;54.57;99425.10;25041;1312;3026960;-69
2022/07/17 00:13:12;;;;;;;10.90;4.90;;;;;;;20.20;54.54;99431.56;25154;1312;3026337;-69
2022/07/17 00:15:41;;;;;;;9.70;5.10;;;;;;;20.19;54.78;99430.91;25078;1312;3070804;-66
2022/07/17 00:18:11;;;;;;;14.10;5.10;;;;;;;20.18;54.83;99430.21;25099;1312;3026838;-67
2022/07/17 00:20:40;;;;;;;9.70;5.20;;;;;;;20.18;54.77;99432.15;25131;1312;3051485;-61
2022/07/17 00:23:09;;;;;;;15.00;5.20;;;;;;;20.18;54.80;99428.81;25040;1312;3028058;-66
2022/07/17 00:25:39;;;;;;;9.00;4.90;;;;;;;20.16;54.93;99423.40;25076;1312;3055544;-66
2022/07/17 00:28:08;;;;;;;12.60;5.30;;;;;;;20.18;55.00;99423.11;25096;1312;3028349;-67
2022/07/17 00:30:38;;;;;;;9.70;4.70;;;;;;;20.19;54.90;99423.48;25097;1312;3052218;-70
2022/07/17 00:33:07;;;;;;;5.50;3.80;;;;;;;20.19;54.97;99421.42;25133;1312;3026764;-68
2022/07/17 00:35:36;;;;;;;10.60;4.30;;;;;;;20.17;54.99;99417.77;25101;1312;3058242;-67
2022/07/17 00:38:05;;;;;;;7.20;3.80;;;;;;;20.18;55.00;99416.18;25051;1312;3029682;-71
2022/07/17 00:40:34;;;;;;;9.10;4.20;;;;;;;20.17;54.94;99411.58;25099;1312;3055082;-65
2022/07/17 00:43:03;;;;;;;7.90;4.00;;;;;;;20.15;55.04;99415.89;25062;1312;3026643;-65
2022/07/17 00:45:32;;;;;;;9.40;3.60;;;;;;;20.13;54.96;99407.75;25096;1312;3054649;-70
2022/07/17 00:48:06;;;;;;;6.10;3.30;;;;;;;20.15;54.80;99403.98;25079;1312;3026489;-69
2022/07/17 00:50:37;;;;;;;8.30;3.90;;;;;;;20.15;54.79;99406.66;25072;1312;3048981;-69
2022/07/17 00:53:06;;;;;;;6.00;3.60;;;;;;;20.13;54.86;99409.48;25128;1315;3027052;-66
2022/07/17 00:55:35;;;;;;;8.10;4.20;;;;;;;20.09;55.11;99409.02;25085;1312;3026539;-67
2022/07/17 00:58:06;;;;;;;5.30;3.40;;;;;;;20.03;55.55;99413.87;25127;1312;3050239;-65
2022/07/17 01:00:35;;;;;;;8.30;3.60;;;;;;;19.98;55.54;99411.91;25086;1312;3026343;-69
2022/07/17 01:03:04;;;;;;;6.60;3.30;;;;;;;19.92;55.75;99414.46;25128;1312;3026484;-66
2022/07/17 01:05:33;;;;;;;4.90;3.10;;;;;;;19.88;56.00;99416.09;25085;1312;3051513;-64
2022/07/17 01:08:03;;;;;;;7.50;2.90;;;;;;;19.85;55.94;99414.64;25103;1312;3026663;-70
2022/07/17 01:10:33;;;;;;;4.90;3.30;;;;;;;19.81;56.04;99415.00;25153;1312;3071598;-63
2022/07/17 01:13:02;;;;;;;10.20;3.40;;;;;;;19.77;56.39;99407.91;25122;1312;3026503;-66
2022/07/17 01:15:41;;;;;;;6.70;2.80;;;;;;;19.73;56.38;99406.67;25100;1312;3026319;-66
2022/07/17 01:18:13;;;;;;;7.00;3.00;;;;;;;19.70;56.38;99408.09;25115;1312;3069608;-72
2022/07/17 01:20:45;;;;;;;6.60;3.10;;;;;;;19.66;56.74;99402.22;25143;1312;3026484;-70
2022/07/17 01:23:15;;;;;;;4.50;2.70;;;;;;;19.62;56.85;99403.26;25103;1312;3026439;-70
2022/07/17 01:25:44;;;;;;;5.70;3.10;;;;;;;19.58;56.74;99400.89;25107;1312;3027285;-70
2022/07/17 01:28:13;;;;;;;4.40;2.90;;;;;;;19.56;56.78;99393.20;25077;1312;3026758;-66
2022/07/17 01:30:50;;;;;;;4.80;2.80;;;;;;;19.53;57.40;99396.67;25117;1312;3028275;-68
2022/07/17 01:33:19;;;;;;;4.60;2.80;;;;;;;19.49;57.53;99394.68;25101;1312;3053254;-70
2022/07/17 01:35:48;;;;;;;5.20;2.70;;;;;;;19.47;57.55;99394.72;25155;1312;3028558;-68
2022/07/17 01:38:17;;;;;;;5.80;2.60;;;;;;;19.47;57.56;99401.86;25100;1312;3026278;-68
2022/07/17 01:40:46;;;;;;;6.10;3.00;;;;;;;19.48;57.06;99400.89;25095;1312;3054863;-69
2022/07/17 01:43:17;;;;;;;5.80;3.30;;;;;;;19.45;57.25;99404.13;25146;1312;3029051;-68
2022/07/17 01:45:47;;;;;;;7.30;3.00;;;;;;;19.44;57.21;99404.66;25124;1312;3028594;-63
2022/07/17 01:48:26;;;;;;;6.50;2.60;;;;;;;19.42;57.44;99409.99;25114;1312;3026465;-66
2022/07/17 01:50:56;;;;;;;7.30;3.50;;;;;;;19.39;57.07;99403.48;25166;1312;3057015;-67
2022/07/17 01:53:25;;;;;;;5.70;2.50;;;;;;;19.40;57.21;99407.85;25173;1312;3026760;-66
2022/07/17 01:55:53;;;;;;;5.00;3.10;;;;;;;19.38;56.91;99407.39;25112;1310;3051519;-69
2022/07/17 01:58:23;;;;;;;9.70;3.10;;;;;;;19.36;56.65;99409.30;25094;1312;3026901;-68
2022/07/17 02:00:52;;;;;;;4.50;2.50;;;;;;;19.36;56.58;99410.96;25142;1313;3052611;-69
2022/07/17 02:03:21;;;;;;;6.40;2.90;;;;;;;19.37;56.40;99420.20;25152;1312;3028204;-70
2022/07/17 02:05:51;;;;;;;5.10;3.00;;;;;;;19.39;56.49;99420.95;25095;1312;3026010;-64
2022/07/17 02:08:20;;;;;;;8.80;3.00;;;;;;;19.38;56.72;99423.65;25172;1312;3028279;-65
2022/07/17 02:10:49;;;;;;;9.10;3.10;;;;;;;19.39;56.44;99426.95;25118;1312;3054538;-68
2022/07/17 02:13:18;;;;;;;7.10;2.80;;;;;;;19.42;56.02;99427.58;25125;1312;3028541;-68
2022/07/17 02:15:47;;;;;;;8.70;5.10;;;;;;;19.43;55.76;99425.84;25054;1312;3053969;-65
2022/07/17 02:18:16;;;;;;;5.00;2.70;;;;;;;19.47;55.49;99421.86;25120;1312;3026547;-66
2022/07/17 02:20:49;;;;;;;4.50;2.80;;;;;;;19.53;54.59;99421.33;25069;1312;3050735;-67
2022/07/17 02:23:18;;;;;;;3.20;2.00;;;;;;;19.66;54.27;99416.35;25167;1312;3026834;-67
2022/07/17 02:25:48;;;;;;;6.40;2.20;;;;;;;19.83;53.30;99416.08;25056;1313;3026231;-63
2022/07/17 02:28:17;;;;;;;3.40;2.00;;;;;;;20.06;52.59;99408.58;25064;1312;3050826;-65
2022/07/17 02:30:46;;;;;;;5.70;2.50;;;;;;;20.24;51.76;99406.11;25131;1312;3028699;-64
2022/07/17 02:33:16;;;;;;;4.20;2.70;;;;;;;20.31;51.39;99404.83;25135;1312;3071050;-67
2022/07/17 02:35:45;;;;;;;5.00;2.40;;;;;;;20.32;50.96;99399.20;25073;1312;3027069;-62
2022/07/17 02:38:14;;;;;;;6.30;2.10;;;;;;;20.31;51.11;99398.77;25170;1312;3051367;-69
2022/07/17 02:40:43;;;;;;;8.00;2.50;;;;;;;20.31;51.04;99397.39;25055;1312;3026620;-66
2022/07/17 02:43:12;;;;;;;5.40;2.00;;;;;;;20.28;50.94;99397.50;25123;1312;3055123;-65
2022/07/17 02:45:42;;;;;;;5.50;2.00;;;;;;;20.23;50.79;99394.30;25123;1312;3026618;-68
2022/07/17 02:48:12;;;;;;;3.40;2.10;;;;;;;20.18;50.97;99394.58;25050;1312;3026858;-68
2022/07/17 02:50:41;;;;;;;6.30;2.00;;;;;;;20.16;51.08;99397.16;25122;1312;3028520;-69
2022/07/17 02:53:10;;;;;;;5.10;2.20;;;;;;;20.15;51.17;99396.15;25136;1312;3051485;-73
2022/07/17 02:55:39;;;;;;;4.20;2.10;;;;;;;20.12;51.26;99397.70;25090;1312;3028193;-69
2022/07/17 02:58:08;;;;;;;10.10;2.30;;;;;;;20.13;51.04;99392.95;25118;1312;3026674;-64
2022/07/17 03:00:37;;;;;;;3.10;2.20;;;;;;;20.15;51.16;99397.55;25065;1312;3053034;-66
2022/07/17 03:03:06;;;;;;;5.20;2.20;;;;;;;20.15;51.28;99391.55;25115;1312;3027984;-68
2022/07/17 03:05:36;;;;;;;5.00;2.20;;;;;;;20.12;51.47;99388.77;25115;1312;3055010;-71
2022/07/17 03:08:05;;;;;;;4.90;2.10;;;;;;;20.11;51.68;99388.01;25073;1312;3028432;-69
2022/07/17 03:10:34;;;;;;;5.10;2.60;;;;;;;20.13;51.81;99386.17;25083;1312;3048684;-67
2022/07/17 03:13:03;;;;;;;9.50;2.60;;;;;;;20.11;52.38;99385.73;25045;1315;3026257;-68
2022/07/17 03:15:33;;;;;;;8.40;2.90;;;;;;;20.09;52.92;99387.21;25035;1314;3058478;-66
2022/07/17 03:18:02;;;;;;;8.20;3.10;;;;;;;20.07;53.36;99383.98;25080;1313;3026515;-71
2022/07/17 03:20:31;;;;;;;7.70;4.30;;;;;;;20.07;53.63;99378.28;25118;1313;3052352;-69
2022/07/17 03:23:00;;;;;;;6.90;4.30;;;;;;;20.07;53.80;99374.08;25095;1313;3027169;-65
2022/07/17 03:25:29;;;;;;;10.20;4.40;;;;;;;20.07;54.23;99377.08;25036;1314;3568815;-68
2022/07/17 03:27:58;;;;;;;6.40;3.70;;;;;;;20.09;53.97;99378.12;25061;1313;3026356;-66
2022/07/17 03:30:27;;;;;;;6.30;3.50;;;;;;;20.14;54.01;99384.38;25145;1314;3028173;-67
2022/07/17 03:32:56;;;;;;;5.00;3.20;;;;;;;20.13;53.80;99379.81;25053;1315;3054405;-64
2022/07/17 03:35:26;;;;;;;6.60;3.00;;;;;;;20.13;54.18;99379.44;25091;1313;3027021;-68
2022/07/17 03:38:03;;;;;;;5.30;2.60;;;;;;;20.15;54.35;99375.49;25118;1313;3058802;-70
2022/07/17 03:40:33;;;;;;;5.10;2.60;;;;;;;20.18;54.27;99370.30;25044;1314;3026582;-67
2022/07/17 03:43:02;;;;;;;7.40;2.60;;;;;;;20.18;54.25;99369.51;25065;1313;3026578;-65
2022/07/17 03:45:31;;;;;;;4.80;2.50;;;;;;;20.17;54.23;99365.59;25005;1315;3058702;-69
2022/07/17 03:48:00;;;;;;;5.50;3.00;;;;;;;20.21;54.15;99361.42;25029;1313;3028740;-68
2022/07/17 03:50:29;;;;;;;6.40;2.60;;;;;;;20.22;53.82;99360.56;24996;1314;3053941;-64
2022/07/17 03:52:58;;;;;;;3.50;2.10;;;;;;;20.26;53.81;99358.21;25079;1313;3026693;-66
2022/07/17 03:55:27;;;;;;;3.90;2.40;;;;;;;20.30;54.02;99356.73;25120;1315;3054638;-70
2022/07/17 03:57:56;;;;;;;9.00;2.70;;;;;;;20.33;54.16;99353.91;25083;1313;3026595;-66
2022/07/17 04:00:25;;;;;;;6.70;2.60;;;;;;;20.37;54.12;99351.38;25058;1315;3047222;-68
2022/07/17 04:02:56;;;;;;;6.60;2.70;;;;;;;20.42;53.99;99351.19;25076;1315;3026257;-66
2022/07/17 04:05:25;;;;;;;6.30;2.20;;;;;;;20.51;53.53;99347.97;25178;1313;3026440;-67
2022/07/17 04:07:53;;;;;;;8.60;2.40;;;;;;;20.60;53.20;99347.27;25079;1312;3048151;-67
2022/07/17 04:10:22;;;;;;;5.90;2.50;;;;;;;20.72;53.01;99352.48;25141;1313;3026192;-64
2022/07/17 04:12:51;;;;;;;4.20;2.30;;;;;;;20.81;52.56;99349.75;25046;1312;3067293;-66
2022/07/17 04:18:09;;;;;;;5.50;2.20;;;;;;;20.98;52.00;99342.74;25085;1312;3054435;-68
2022/07/17 04:20:38;;;;;;;3.10;2.00;;;;;;;21.08;51.85;99337.98;25122;1313;3026262;-68
2022/07/17 04:23:07;;;;;;;3.70;2.30;;;;;;;21.18;51.59;99338.71;25092;1313;3028565;-71
2022/07/17 04:25:36;;;;;;;4.40;2.10;;;;;;;21.22;51.40;99339.35;25100;1313;3054094;-65
2022/07/17 04:28:05;;;;;;;4.00;1.90;;;;;;;21.29;51.31;99343.37;25120;1313;3026812;-67
2022/07/17 04:30:34;;;;;;;5.50;2.10;;;;;;;21.32;51.34;99347.67;25109;1312;3048582;-68
2022/07/17 04:33:04;;;;;;;6.70;2.20;;;;;;;21.31;51.02;99353.39;25091;1313;3026403;-70
2022/07/17 04:35:33;;;;;;;5.60;2.30;;;;;;;21.36;51.22;99356.20;25074;1313;3067604;-70
2022/07/17 04:38:04;;;;;;;4.60;2.20;;;;;;;21.42;50.88;99359.54;25179;1313;3027388;-68
2022/07/17 04:40:34;;;;;;;4.80;2.10;;;;;;;21.45;50.78;99356.04;25106;1313;3027080;-68
2022/07/17 04:43:04;;;;;;;6.50;1.90;;;;;;;21.49;50.12;99353.38;25124;1313;3026987;-67
2022/07/17 04:45:34;;;;;;;5.00;2.50;;;;;;;21.50;49.80;99353.83;25162;1313;3026298;-70
2022/07/17 04:48:03;;;;;;;4.50;2.20;;;;;;;21.55;49.73;99350.19;25078;1313;3029759;-71
2022/07/17 04:50:33;;;;;;;5.30;2.10;;;;;;;21.61;49.51;99353.20;25146;1312;3051737;-68
2022/07/17 04:53:02;;;;;;;4.90;2.30;;;;;;;21.68;49.46;99345.44;25140;1313;3027652;-68
2022/07/17 04:55:31;;;;;;;3.50;2.00;;;;;;;21.77;48.92;99344.08;25121;1313;3026777;-65
2022/07/17 04:58:00;;;;;;;5.90;2.10;;;;;;;21.88;48.35;99342.73;25139;1313;3055136;-70
2022/07/17 05:00:29;;;;;;;5.60;2.80;;;;;;;21.96;48.29;99340.47;25149;1313;3026557;-71
2022/07/17 05:02:58;;;;;;;3.00;2.00;;;;;;;22.01;48.13;99343.48;25146;1313;3054816;-68
2022/07/17 05:05:27;;;;;;;3.70;2.00;;;;;;;22.09;48.24;99345.05;25111;1313;3026397;-66
2022/07/17 05:07:56;;;;;;;5.00;2.50;;;;;;;22.16;48.11;99344.88;25123;1313;3051460;-70
2022/07/17 05:10:25;;;;;;;5.50;2.40;;;;;;;22.22;48.05;99347.60;25065;1313;3026507;-69
2022/07/17 05:12:54;;;;;;;6.50;2.60;;;;;;;22.33;47.99;99346.33;25104;1312;3069239;-68
2022/07/17 05:15:50;;;;;;;9.70;4.20;;;;;;;22.46;47.13;99350.95;25156;1312;3052183;-67
2022/07/17 05:18:18;;;;;;;8.80;3.40;;;;;;;22.56;47.42;99345.91;25117;1312;3025991;-69
2022/07/17 05:20:48;;;;;;;5.40;3.00;;;;;;;22.66;47.48;99341.58;25101;1312;3069295;-70
2022/07/17 05:23:17;;;;;;;4.10;2.70;;;;;;;22.69;47.82;99342.00;25182;1312;3026634;-73
2022/07/17 05:25:46;;;;;;;3.00;2.10;;;;;;;22.73;47.72;99341.34;25143;1312;3054690;-67
2022/07/17 05:28:15;;;;;;;3.60;2.30;;;;;;;22.79;47.74;99338.79;25075;1312;3026515;-69
2022/07/17 05:30:44;;;;;;;3.90;2.40;;;;;;;22.89;47.35;99339.17;25136;1312;3055272;-71
2022/07/17 05:33:13;;;;;;;5.80;2.40;;;;;;;22.99;47.90;99342.50;25148;1312;3026548;-68
2022/07/17 05:35:42;;;;;;;4.80;2.20;;;;;;;23.12;47.88;99351.02;25177;1312;3026594;-67
2022/07/17 05:38:14;;;;;;;5.70;2.60;;;;;;;23.22;47.64;99351.16;25124;1312;3050924;-64
2022/07/17 05:40:43;;;;;;;6.60;2.90;;;;;;;23.34;47.29;99349.38;25132;1312;3026699;-71
2022/07/17 05:43:12;;;;;;;6.60;2.80;;;;;;;23.47;47.08;99340.86;25124;1312;3048388;-68
2022/07/17 05:45:41;;;;;;;3.90;2.40;;;;;;;23.60;46.57;99340.38;25233;1312;3026864;-69
2022/07/17 05:48:10;;;;;;;8.40;3.00;;;;;;;23.69;46.28;99353.02;25141;1312;3056644;-67
2022/07/17 05:50:39;;;;;;;5.10;2.80;;;;;;;23.71;46.61;99361.20;25151;1312;3027069;-71
2022/07/17 05:53:08;;;;;;;7.90;2.30;;;;;;;23.73;46.97;99359.64;25128;1312;3053982;-73
2022/07/17 05:55:37;;;;;;;5.40;2.30;;;;;;;23.78;46.87;99342.89;25114;1312;3026312;-74
2022/07/17 05:58:09;;;;;;;6.90;2.90;;;;;;;23.76;46.88;99329.14;25116;1311;3051598;-69
2022/07/17 06:00:39;;;;;;;4.10;2.30;;;;;;;23.77;47.17;99329.71;25163;1312;3026687;-71
2022/07/17 06:03:08;;;;;;;6.10;2.50;;;;;;;23.87;46.47;99334.70;25155;1312;3026319;-65
2022/07/17 06:05:39;;;;;;;3.60;2.10;;;;;;;23.96;46.44;99339.65;25079;1312;3027250;-71
2022/07/17 06:08:08;;;;;;;9.00;2.50;;;;;;;24.05;46.56;99344.98;25207;1312;3026618;-69
2022/07/17 06:10:38;;;;;;;4.20;2.70;;;;;;;24.12;46.22;99343.64;25140;1312;3059536;-68
2022/07/17 06:13:07;;;;;;;5.70;2.50;;;;;;;24.17;45.52;99349.28;25081;1312;3025885;-74
2022/07/17 06:15:36;;;;;;;4.20;2.10;;;;;;;24.14;45.41;99355.40;25122;1312;3026545;-76
2022/07/17 06:18:05;;;;;;;3.70;2.20;;;;;;;24.15;45.49;99355.48;25209;1312;3058068;-68
2022/07/17 06:20:34;;;;;;;4.60;2.10;;;;;;;24.10;45.28;99360.29;25106;1312;3027386;-66
2022/07/17 06:23:03;;;;;;;4.10;1.80;;;;;;;24.26;45.03;99356.94;25090;1312;3053167;-64
2022/07/17 06:25:32;;;;;;;4.70;2.20;;;;;;;24.34;44.46;99358.89;25122;1312;3026654;-70
2022/07/17 06:28:03;;;;;;;4.80;2.20;;;;;;;24.42;44.16;99357.06;25072;1312;3052260;-70
2022/07/17 06:30:32;;;;;;;7.20;2.70;;;;;;;24.57;43.55;99353.67;25172;1312;3026773;-66
2022/07/17 06:33:01;;;;;;;6.50;2.50;;;;;;;24.69;43.19;99350.13;25186;1312;3026255;-63
2022/07/17 06:35:33;;;;;;;9.40;2.80;;;;;;;24.79;43.22;99359.92;25120;1312;3052423;-71
2022/07/17 06:38:02;;;;;;;4.40;2.30;;;;;;;24.72;42.99;99362.73;25188;1312;3026845;-70
2022/07/17 06:40:31;;;;;;;3.40;2.30;;;;;;;24.82;42.99;99368.96;25128;1312;3030207;-68
2022/07/17 06:43:00;;;;;;;5.30;2.40;;;;;;;24.91;42.91;99368.73;25151;1312;3054925;-72
2022/07/17 06:45:29;;;;;;;8.60;2.70;;;;;;;24.94;43.39;99368.50;25148;1312;3026704;-69
2022/07/17 06:47:59;;;;;;;7.10;2.80;;;;;;;24.97;43.67;99365.60;25163;1312;3047670;-62
2022/07/17 06:50:28;;;;;;;5.50;2.30;;;;;;;25.10;42.75;99362.38;25167;1312;3026948;-66
2022/07/17 06:52:58;;;;;;;7.60;2.30;;;;;;;25.17;41.99;99358.02;25195;1311;3071468;-66
2022/07/17 06:55:27;;;;;;;6.40;2.80;;;;;;;25.21;42.14;99371.77;25180;1312;3026447;-67
2022/07/17 06:57:57;;;;;;;4.90;2.40;;;;;;;25.23;42.55;99376.45;25155;1312;3026540;-63
2022/07/17 07:00:26;;;;;;;4.60;2.30;;;;;;;25.27;42.29;99381.50;25110;1313;3069525;-71
2022/07/17 07:02:55;;;;;;;5.30;2.20;;;;;;;25.30;42.49;99386.45;25173;1312;3026610;-65
2022/07/17 07:05:23;;;;;;;7.40;2.30;;;;;;;25.37;42.17;99386.34;25104;1312;3051069;-67
2022/07/17 07:07:52;;;;;;;4.50;2.10;;;;;;;25.39;41.23;99389.91;25157;1312;3026837;-72
2022/07/17 07:10:21;;;;;;;4.50;2.20;;;;;;;25.40;40.63;99397.16;25182;1312;3051907;-72
2022/07/17 07:12:50;;;;;;;6.40;2.10;;;;;;;25.32;41.10;99407.03;25188;1312;3027150;-72
2022/07/17 07:15:24;;;;;;;2.90;1.90;;;;;;;25.13;41.83;99409.55;25171;1312;3053279;-66
2022/07/17 07:17:53;;;;;;;6.60;2.10;;;;;;;25.05;42.17;99399.79;25230;1312;3026950;-74
2022/07/17 07:20:22;;;;;;;6.90;2.20;;;;;;;24.91;42.22;99391.06;25186;1312;3026459;-63
2022/07/17 07:22:51;;;;;;;7.30;4.50;;;;;;;24.79;42.17;99377.98;25163;1312;3049678;-69
2022/07/17 07:25:21;;;;;;;16.30;4.40;;;;;;;24.55;43.35;99365.30;25174;1312;3026569;-65
2022/07/17 07:27:57;;;;;;;12.80;4.60;;;;;;;24.59;43.88;99367.70;25174;1312;3058855;-68
2022/07/17 07:30:27;;;;;;;13.90;4.70;;;;;;;24.67;44.67;99375.97;25168;1312;3026229;-73
2022/07/17 07:32:56;;;;;;;13.10;5.40;;;;;;;24.57;45.03;99384.86;25156;1312;3052700;-67
2022/07/17 07:35:25;;;;;;;8.40;4.90;;;;;;;24.41;45.52;99387.40;25173;1312;3026562;-68
2022/07/17 07:37:54;;;;;;;17.70;9.50;;;;;;;24.28;45.45;99393.54;25142;1312;3054363;-69
2022/07/17 07:40:23;;;;;;;15.80;8.90;;;;;;;23.95;45.50;99390.22;25179;1312;3026406;-72
2022/07/17 07:42:52;;;;;;;12.10;7.10;;;;;;;23.75;46.03;99394.14;25141;1312;3050824;-70
2022/07/17 07:45:21;;;;;;;17.60;7.30;;;;;;;23.64;46.22;99395.05;25189;1312;3026904;-68
2022/07/17 07:47:51;;;;;;;14.70;5.80;;;;;;;23.59;46.36;99395.30;25137;1313;3070712;-72
2022/07/17 07:50:22;;;;;;;10.70;5.90;;;;;;;23.50;46.85;99397.73;25120;1312;3026416;-69
2022/07/17 07:52:51;;;;;;;16.40;6.60;;;;;;;23.41;47.30;99404.54;25183;1312;3051363;-69
2022/07/17 07:55:21;;;;;;;12.30;5.90;;;;;;;23.31;47.96;99405.31;25123;1312;3026423;-70
2022/07/17 07:58:09;;;;;;;13.20;5.70;;;;;;;23.28;48.11;99403.31;25174;1312;3027033;-71
2022/07/17 08:00:39;;;;;;;12.40;6.50;;;;;;;23.16;49.17;99409.67;25149;1312;3053375;-70
2022/07/17 08:03:12;;;;;;;23.20;6.70;;;;;;;23.11;49.82;99409.55;25169;1312;3026642;-74
2022/07/17 08:05:41;;;;;;;18.80;8.80;;;;;;;23.24;49.87;99413.25;25192;1312;3026754;-71
2022/07/17 08:08:11;;;;;;;16.60;8.80;;;;;;;23.34;49.91;99424.42;25164;1312;3027625;-70
2022/07/17 08:10:40;;;;;;;13.40;6.40;;;;;;;23.30;49.65;99433.79;25177;1312;3026396;-65
2022/07/17 08:13:09;;;;;;;10.70;5.10;;;;;;;23.17;49.91;99436.11;25165;1312;3057833;-66
2022/07/17 08:15:38;;;;;;;10.10;5.30;;;;;;;23.14;49.78;99436.55;25180;1312;3026589;-69
2022/07/17 08:18:08;;;;;;;10.30;6.00;;;;;;;22.99;50.46;99437.91;25194;1312;3030454;-71
2022/07/17 08:20:37;;;;;;;14.30;8.40;;;;;;;22.88;51.09;99425.16;25181;1315;3026796;-69
2022/07/17 08:23:07;;;;;;;15.10;6.50;;;;;;;22.84;51.61;99416.71;25200;1312;3026808;-69
2022/07/17 08:25:38;;;;;;;8.90;5.30;;;;;;;22.88;52.71;99422.79;25226;1312;3053491;-70
2022/07/17 08:28:07;;;;;;;10.70;5.10;;;;;;;22.84;53.78;99429.61;25166;1312;3026238;-70
2022/07/17 08:30:36;;;;;;;17.10;5.60;;;;;;;22.82;54.84;99425.89;25193;1312;3027047;-69
2022/07/17 08:33:06;;;;;;;15.40;5.30;;;;;;;22.74;55.58;99428.70;25205;1312;3052745;-74
2022/07/17 08:35:36;;;;;;;15.00;5.80;;;;;;;22.62;55.53;99422.02;25197;1314;3027463;-71
2022/07/17 08:38:05;;;;;;;12.20;5.80;;;;;;;22.45;55.72;99423.02;25191;1312;3029271;-71
2022/07/17 08:40:36;;;;;;;15.00;7.40;;;;;;;22.36;55.68;99422.04;25199;1313;3029565;-68
2022/07/17 08:43:06;;;;;;;25.10;9.70;;;;;;;22.32;55.48;99420.97;25214;1315;3026230;-67
2022/07/17 08:45:38;;;;;;;26.50;13.60;;;;;;;22.28;55.83;99416.45;25164;1312;3026906;-67
2022/07/17 08:48:09;;;;;;;23.20;11.70;;;;;;;22.46;55.72;99411.48;25202;1312;3029103;-71
2022/07/17 08:50:39;;;;;;;21.20;12.20;;;;;;;22.49;55.86;99413.13;25156;1313;3027111;-71
2022/07/17 08:53:08;;;;;;;20.70;11.00;;;;;;;22.51;55.07;99420.55;25175;1312;3026476;-68
2022/07/17 08:56:03;;;;;;;18.70;9.10;;;;;;;22.61;54.96;99424.29;25137;1313;3052159;-71
2022/07/17 08:58:33;;;;;;;12.80;6.20;;;;;;;22.57;54.09;99427.91;25164;1312;3026067;-71
2022/07/17 09:01:02;;;;;;;11.70;5.50;;;;;;;22.25;54.38;99423.33;25182;1312;3028871;-69
2022/07/17 09:03:31;;;;;;;13.30;5.30;;;;;;;22.09;54.73;99439.05;25230;1312;3050648;-68
2022/07/17 09:06:01;;;;;;;12.20;4.50;;;;;;;22.07;54.84;99444.55;25173;1312;3027458;-69
2022/07/17 09:08:33;;;;;;;10.10;4.40;;;;;;;22.00;55.41;99444.55;25154;1312;3027456;-71
2022/07/17 09:11:14;;;;;;;8.80;4.00;;;;;;;21.98;54.96;99442.77;25151;1312;3055143;-68
2022/07/17 09:13:47;;;;;;;8.20;3.60;;;;;;;21.81;55.90;99444.02;25189;1313;3055653;-71
2022/07/17 09:16:19;;;;;;;9.10;3.60;;;;;;;21.67;56.32;99444.25;25199;1312;3030133;-69
2022/07/17 09:18:55;;;;;;;7.30;3.30;;;;;;;21.55;56.45;99461.20;25130;1313;3028024;-70
2022/07/17 09:21:26;;;;;;;7.30;3.50;;;;;;;21.52;56.54;99456.77;25175;1312;3055316;-71
2022/07/17 09:24:03;;;;;;;6.70;3.60;;;;;;;21.68;55.83;99451.11;25152;1312;3057757;-71
2022/07/17 09:26:33;;;;;;;12.70;3.40;;;;;;;21.53;56.20;99460.95;25149;1312;3049646;-67
2022/07/17 09:29:03;;;;;;;7.20;3.10;;;;;;;21.22;56.58;99465.03;25136;1312;3028750;-69
2022/07/17 09:31:32;;;;;;;5.80;2.90;;;;;;;21.12;56.34;99459.64;25171;1312;3026624;-70
2022/07/17 09:34:01;;;;;;;9.10;3.30;;;;;;;21.16;56.31;99453.80;25191;1312;3028175;-67
2022/07/17 09:36:30;;;;;;;6.70;3.00;;;;;;;21.04;56.30;99468.18;25163;1315;3026391;-68
2022/07/17 09:39:01;;;;;;;12.20;3.20;;;;;;;20.76;56.43;99469.77;25171;1313;3050539;-68
2022/07/17 09:41:33;;;;;;;6.40;2.90;;;;;;;20.59;56.28;99461.38;25205;1312;3026348;-67
2022/07/17 09:44:02;;;;;;;7.80;3.20;;;;;;;20.59;56.04;99462.98;25246;1312;3052104;-67
2022/07/17 09:46:34;;;;;;;10.50;3.10;;;;;;;20.40;56.04;99470.67;25143;1312;3028770;-69
2022/07/17 09:49:07;;;;;;;7.70;2.80;;;;;;;20.34;56.39;99466.10;25145;1313;3027341;-67
2022/07/17 09:51:38;;;;;;;5.40;2.50;;;;;;;20.37;56.03;99466.69;25205;1312;3049404;-73
2022/07/17 09:54:10;;;;;;;13.00;2.50;;;;;;;20.35;55.83;99465.27;25194;1312;3026721;-75
2022/07/17 09:56:40;;;;;;;6.20;2.80;;;;;;;20.34;55.59;99462.36;25164;1312;3026552;-71
2022/07/17 09:59:12;;;;;;;7.90;2.80;;;;;;;20.42;55.44;99458.89;25206;1312;3026983;-74
2022/07/17 10:01:42;;;;;;;4.30;2.70;;;;;;;20.34;55.74;99462.14;25260;1312;3026679;-71
2022/07/17 10:04:12;;;;;;;4.30;2.40;;;;;;;20.48;55.80;99463.04;25302;1310;3027168;-70
2022/07/17 10:06:40;;;;;;;14.30;2.70;;;;;;;20.51;55.38;99469.69;25166;1312;3028952;-72
2022/07/17 10:09:09;;;;;;;6.20;2.30;;;;;;;20.42;55.40;99471.65;25256;1312;3049348;-73
2022/07/17 10:11:39;;;;;;;6.20;2.40;;;;;;;20.34;55.06;99468.54;25238;1312;3026193;-75
2022/07/17 10:14:10;;;;;;;7.10;2.60;;;;;;;20.26;55.26;99466.71;25217;1312;3054498;-72
2022/07/17 10:16:41;;;;;;;4.40;2.30;;;;;;;20.35;55.13;99467.27;25257;1312;3027088;-74
2022/07/17 10:19:17;;;;;;;4.90;2.00;;;;;;;20.34;54.60;99461.14;25189;1312;3026634;-70
2022/07/17 10:21:56;;;;;;;6.50;2.40;;;;;;;20.39;54.34;99454.73;25122;1312;3056632;-69
2022/07/17 10:24:29;;;;;;;6.10;2.60;;;;;;;20.46;54.21;99449.38;25183;1312;3053746;-71
2022/07/17 10:26:58;;;;;;;4.80;2.30;;;;;;;20.48;54.56;99440.27;25186;1312;3026846;-64
2022/07/17 10:29:34;;;;;;;4.10;2.30;;;;;;;20.41;54.87;99441.73;25158;1312;3026924;-71
2022/07/17 10:32:17;;;;;;;8.40;2.50;;;;;;;20.47;54.97;99439.52;25188;1312;3068398;-73
2022/07/17 10:34:52;;;;;;;8.10;2.50;;;;;;;20.73;54.34;99435.66;25191;1311;3049262;-72
2022/07/17 10:37:25;;;;;;;4.50;2.10;;;;;;;20.53;54.05;99435.00;25215;1313;3053309;-76
2022/07/17 10:39:55;;;;;;;4.90;2.10;;;;;;;20.41;54.18;99434.73;25218;1310;3027157;-71
2022/07/17 10:42:49;;;;;;;4.90;2.20;;;;;;;20.32;54.52;99436.88;25166;1313;3028293;-68
2022/07/17 10:45:35;;;;;;;6.20;2.40;;;;;;;20.30;55.32;99434.06;25153;1310;3052575;-72
2022/07/17 10:48:06;;;;;;;5.70;2.10;;;;;;;20.30;55.74;99435.70;25154;1310;3053616;-75
2022/07/17 10:50:40;;;;;;;2.50;2.10;;;;;;;20.25;55.81;99439.92;25199;1310;3026574;-74
2022/07/17 10:53:16;;;;;;;3.50;2.40;;;;;;;20.08;56.68;99463.88;25102;1310;3069685;-73
2022/07/17 10:55:48;;;;;;;6.30;2.70;;;;;;;20.02;57.14;99482.83;25195;1310;3050361;-73
2022/07/17 10:58:25;;;;;;;4.40;2.40;;;;;;;19.96;57.52;99480.91;25177;1310;3029625;-68
2022/07/17 11:01:01;;;;;;;4.10;2.20;;;;;;;19.81;58.07;99483.42;25189;1310;3055400;-74
2022/07/17 11:03:33;;;;;;;5.20;2.70;;;;;;;19.61;58.95;99480.55;25130;1310;3056970;-68
2022/07/17 11:06:09;;;;;;;7.80;2.60;;;;;;;19.56;59.11;99479.70;25167;1311;3026786;-72
2022/07/17 11:08:45;;;;;;;3.90;2.30;;;;;;;19.50;59.32;99488.38;25192;1310;3055884;-64
2022/07/17 11:11:21;;;;;;;7.40;2.30;;;;;;;19.39;59.35;99491.79;25172;1310;3051802;-67
2022/07/17 11:13:50;;;;;;;5.10;2.20;;;;;;;19.35;59.73;99494.06;25181;1312;3071295;-66
2022/07/17 11:16:29;;;;;;;7.80;2.60;;;;;;;19.22;60.82;99494.48;25225;1312;3026731;-66
2022/07/17 11:18:58;;;;;;;3.30;2.20;;;;;;;19.09;60.98;99487.89;25122;1312;3051889;-66
2022/07/17 11:21:27;;;;;;;5.70;2.60;;;;;;;19.04;61.77;99480.78;25232;1312;3026802;-66
2022/07/17 11:23:57;;;;;;;4.80;2.30;;;;;;;19.04;61.89;99469.06;25144;1313;3026586;-60
2022/07/17 11:26:26;;;;;;;8.80;2.90;;;;;;;19.02;62.02;99459.80;25149;1312;3054683;-66
2022/07/17 11:28:55;;;;;;;4.10;2.60;;;;;;;19.09;63.02;99453.09;25151;1312;3026603;-75
2022/07/17 11:31:29;;;;;;;4.00;2.40;;;;;;;19.09;63.22;99453.64;25138;1316;3048435;-70